createdAt,value
2023-01-04T00:00:03.045Z,4.15
2023-01-04T00:03:10.746Z,4.12
2023-01-04T00:06:21.173Z,4.09
2023-01-04T00:09:26.422Z,4.05
2023-01-04T00:12:33.642Z,3.98
2023-01-04T00:15:39.891Z,3.93
2023-01-04T00:18:49.315Z,3.90
2023-01-04T00:21:56.408Z,3.85
2023-01-04T00:25:02.165Z,3.83
2023-01-04T00:28:10.468Z,3.79
2023-01-04T00:31:23.837Z,3.76
2023-01-04T00:34:31.051Z,3.72
2023-01-04T00:37:37.076Z,3.69
2023-01-04T00:40:45.048Z,3.66
2023-01-04T00:43:51.668Z,3.62
2023-01-04T00:46:58.429Z,3.59
2023-01-04T00:50:03.978Z,3.54
2023-01-04T00:53:09.982Z,3.49
2023-01-04T00:56:15.385Z,3.46
2023-01-04T00:59:22.444Z,3.44
2023-01-04T01:02:29.902Z,3.40
2023-01-04T01:05:37.055Z,3.38
2023-01-04T01:08:44.760Z,3.34
2023-01-04T01:11:50.447Z,3.29
2023-01-04T01:15:00.454Z,3.28
2023-01-04T01:18:05.137Z,3.25
2023-01-04T01:21:10.746Z,3.23
2023-01-04T01:24:20.101Z,3.23
2023-01-04T01:27:25.716Z,3.22
2023-01-04T01:30:32.082Z,3.20
2023-01-04T01:33:37.928Z,3.19
2023-01-04T01:36:44.155Z,3.18
2023-01-04T01:39:50.683Z,3.17
2023-01-04T01:42:56.664Z,3.15
2023-01-04T01:46:05.374Z,3.16
2023-01-04T01:49:16.055Z,3.15
2023-01-04T01:52:26.476Z,3.16
2023-01-04T01:55:32.906Z,3.17
2023-01-04T01:58:46.839Z,3.14
2023-01-04T02:01:53.192Z,3.13
2023-01-04T02:05:02.583Z,3.11
2023-01-04T02:08:08.750Z,3.08
2023-01-04T02:11:16.297Z,3.06
2023-01-04T02:14:35.013Z,3.03
2023-01-04T02:18:00.334Z,3.02
2023-01-04T02:21:14.993Z,2.97
2023-01-04T02:24:28.884Z,2.94
2023-01-04T02:28:04.224Z,2.92
2023-01-04T02:31:30.144Z,2.88
2023-01-04T02:34:40.933Z,2.85
2023-01-04T02:38:03.099Z,2.83
2023-01-04T02:41:37.846Z,2.81
2023-01-04T02:45:03.257Z,2.80
2023-01-04T02:48:27.273Z,2.79
2023-01-04T02:51:50.104Z,2.79
2023-01-04T02:54:56.365Z,2.78
2023-01-04T02:58:23.517Z,2.77
2023-01-04T03:02:25.220Z,2.76
2023-01-04T03:06:13.626Z,2.75
2023-01-04T03:09:28.517Z,2.73
2023-01-04T03:12:42.525Z,2.72
2023-01-04T03:15:50.977Z,2.71
2023-01-04T03:19:03.130Z,2.69
2023-01-04T03:22:08.464Z,2.68
2023-01-04T03:25:31.052Z,2.66
2023-01-04T03:28:55.330Z,2.65
2023-01-04T03:32:39.845Z,2.63
2023-01-04T03:36:00.583Z,2.60
2023-01-04T03:39:31.026Z,2.60
2023-01-04T03:43:35.214Z,2.58
2023-01-04T03:47:17.061Z,2.54
2023-01-04T03:50:26.801Z,2.50
2023-01-04T03:53:32.773Z,2.49
2023-01-04T03:56:41.072Z,2.49
2023-01-04T03:59:47.106Z,2.48
2023-01-04T04:02:56.007Z,2.45
2023-01-04T04:06:20.769Z,2.43
2023-01-04T04:09:26.221Z,2.42
2023-01-04T04:12:31.298Z,2.41
2023-01-04T04:15:37.477Z,2.39
2023-01-04T04:18:42.780Z,2.38
2023-01-04T04:21:49.601Z,2.36
2023-01-04T04:24:55.855Z,2.35
2023-01-04T04:28:01.149Z,2.35
2023-01-04T04:31:07.354Z,2.32
2023-01-04T04:34:13.792Z,2.32
2023-01-04T04:37:19.310Z,2.30
2023-01-04T04:40:37.196Z,2.28
2023-01-04T04:43:43.067Z,2.26
2023-01-04T04:46:49.276Z,2.23
2023-01-04T04:49:56.033Z,2.20
2023-01-04T04:53:02.611Z,2.16
2023-01-04T04:56:08.081Z,2.14
2023-01-04T04:59:14.014Z,2.13
2023-01-04T05:02:20.304Z,2.10
2023-01-04T05:05:20.289Z,2.06
2023-01-04T05:08:07.367Z,2.03
2023-01-04T05:11:00.004Z,2.03
2023-01-04T05:13:53.709Z,2.00
2023-01-04T05:16:59.675Z,1.96
2023-01-04T05:20:05.368Z,1.95
2023-01-04T05:23:11.288Z,1.92
2023-01-04T05:26:16.496Z,1.89
2023-01-04T05:29:23.106Z,1.87
2023-01-04T05:32:28.193Z,1.84
2023-01-04T05:35:33.272Z,1.79
2023-01-04T05:38:40.298Z,1.77
2023-01-04T05:42:04.030Z,1.76
2023-01-04T05:45:10.039Z,1.74
2023-01-04T05:48:15.721Z,1.75
2023-01-04T05:51:21.183Z,1.74
2023-01-04T05:54:28.221Z,1.74
2023-01-04T05:57:33.794Z,1.74
2023-01-04T06:00:42.375Z,1.73
2023-01-04T06:03:49.561Z,1.74
2023-01-04T06:06:56.147Z,1.75
2023-01-04T06:10:03.063Z,1.76
2023-01-04T06:13:08.580Z,1.77
2023-01-04T06:16:14.612Z,1.80
2023-01-04T06:19:21.521Z,1.82
2023-01-04T06:22:26.931Z,1.85
2023-01-04T06:25:37.012Z,1.87
2023-01-04T06:28:43.569Z,1.90
2023-01-04T06:31:50.166Z,1.93
2023-01-04T06:34:56.090Z,1.96
2023-01-04T06:38:01.998Z,1.97
2023-01-04T06:41:09.033Z,2.00
2023-01-04T06:44:15.283Z,2.06
2023-01-04T06:47:21.031Z,2.11
2023-01-04T06:50:27.135Z,2.14
2023-01-04T06:53:33.115Z,2.18
2023-01-04T06:56:40.418Z,2.24
2023-01-04T06:59:45.995Z,2.30
2023-01-04T07:03:13.766Z,2.34
2023-01-04T07:06:00.951Z,2.41
2023-01-04T07:09:07.162Z,2.45
2023-01-04T07:12:12.848Z,2.49
2023-01-04T07:15:39.507Z,2.53
2023-01-04T07:18:26.356Z,2.57
2023-01-04T07:21:33.639Z,2.60
2023-01-04T07:24:40.993Z,2.63
2023-01-04T07:27:46.817Z,2.69
2023-01-04T07:30:53.992Z,2.74
2023-01-04T07:34:05.340Z,2.77
2023-01-04T07:37:11.657Z,2.84
2023-01-04T07:40:16.339Z,2.91
2023-01-04T07:43:27.703Z,2.94
2023-01-04T07:46:30.568Z,3.00
2023-01-04T07:49:37.131Z,3.10
2023-01-04T07:52:45.859Z,3.18
2023-01-04T07:55:51.953Z,3.27
2023-01-04T07:59:01.396Z,3.34
2023-01-04T08:02:08.916Z,3.39
2023-01-04T08:05:14.853Z,3.45
2023-01-04T08:08:21.886Z,3.49
2023-01-04T08:11:32.294Z,3.50
2023-01-04T08:14:39.574Z,3.50
2023-01-04T08:17:47.730Z,3.54
2023-01-04T08:20:58.478Z,3.63
2023-01-04T08:24:02.624Z,3.70
2023-01-04T08:27:09.293Z,3.76
2023-01-04T08:30:21.525Z,3.82
2023-01-04T08:33:31.814Z,3.92
2023-01-04T08:36:46.464Z,4.03
2023-01-04T08:39:52.185Z,4.15
2023-01-04T08:42:57.249Z,4.29
2023-01-04T08:46:03.998Z,4.36
2023-01-04T08:49:09.269Z,4.40
2023-01-04T08:52:16.414Z,4.45
2023-01-04T08:55:23.827Z,4.53
2023-01-04T08:58:30.062Z,4.63
2023-01-04T09:01:37.380Z,4.68
2023-01-04T09:04:43.665Z,4.77
2023-01-04T09:07:48.930Z,4.82
2023-01-04T09:10:54.865Z,4.88
2023-01-04T09:14:07.397Z,4.89
2023-01-04T09:17:08.334Z,4.91
2023-01-04T09:20:16.086Z,4.95
2023-01-04T09:23:22.451Z,5.01
2023-01-04T09:26:33.654Z,5.05
2023-01-04T09:29:40.804Z,5.06
2023-01-04T09:32:42.219Z,5.04
2023-01-04T09:35:49.144Z,5.04
2023-01-04T09:38:55.879Z,5.05
2023-01-04T09:42:13.004Z,5.01
2023-01-04T09:45:33.826Z,5.02
2023-01-04T09:48:43.116Z,5.06
2023-01-04T09:51:51.810Z,5.10
2023-01-04T09:55:37.092Z,5.20
2023-01-04T09:58:31.856Z,5.27
2023-01-04T10:01:47.075Z,5.33
2023-01-04T10:05:04.205Z,5.34
2023-01-04T10:08:11.119Z,5.34
2023-01-04T10:11:41.089Z,5.33
2023-01-04T10:14:59.525Z,5.31
2023-01-04T10:21:40.196Z,5.36
2023-01-04T10:25:09.963Z,5.36
2023-01-04T10:28:45.769Z,5.36
2023-01-04T10:31:55.323Z,5.35
2023-01-04T10:35:02.875Z,5.34
2023-01-04T10:38:17.032Z,5.33
2023-01-04T10:41:29.081Z,5.31
2023-01-04T10:45:13.951Z,5.33
2023-01-04T10:48:28.840Z,5.34
2023-01-04T10:51:50.429Z,5.34
2023-01-04T10:55:15.578Z,5.30
2023-01-04T10:58:39.257Z,5.19
2023-01-04T11:01:55.004Z,5.12
2023-01-04T11:05:13.953Z,5.07
2023-01-04T11:08:37.429Z,5.07
2023-01-04T11:11:54.921Z,5.12
2023-01-04T11:15:01.244Z,5.16
2023-01-04T11:18:07.588Z,5.15
2023-01-04T11:21:14.162Z,5.14
2023-01-04T11:24:31.966Z,5.18
2023-01-04T11:27:34.342Z,5.33
2023-01-04T11:30:43.807Z,5.42
2023-01-04T11:34:15.151Z,5.39
2023-01-04T11:37:24.143Z,5.32
2023-01-04T11:40:36.614Z,5.31
2023-01-04T11:43:45.481Z,5.23
2023-01-04T11:46:52.881Z,5.12
2023-01-04T11:49:59.782Z,5.04
2023-01-04T11:53:06.627Z,5.03
2023-01-04T11:56:36.442Z,5.05
2023-01-04T11:59:43.586Z,5.04
2023-01-04T12:03:01.204Z,5.03
2023-01-04T12:05:57.752Z,4.98
2023-01-04T12:09:03.768Z,4.92
2023-01-04T12:12:15.965Z,4.90
2023-01-04T12:15:31.265Z,4.84
2023-01-04T12:18:46.153Z,4.82
2023-01-04T12:21:55.738Z,4.82
2023-01-04T12:25:01.811Z,4.83
2023-01-04T12:28:08.523Z,4.84
2023-01-04T12:31:37.118Z,4.88
2023-01-04T12:34:47.962Z,4.89
2023-01-04T12:37:59.565Z,4.89
2023-01-04T12:41:07.132Z,4.89
2023-01-04T12:44:13.344Z,4.85
2023-01-04T12:47:52.321Z,4.83
2023-01-04T12:51:37.198Z,4.82
2023-01-04T12:54:50.245Z,4.81
2023-01-04T12:57:55.960Z,4.81
2023-01-04T13:01:12.819Z,4.80
2023-01-04T13:04:30.512Z,4.76
2023-01-04T13:07:43.982Z,4.72
2023-01-04T13:11:06.729Z,4.72
2023-01-04T13:14:26.977Z,4.72
2023-01-04T13:17:37.225Z,4.70
2023-01-04T13:20:43.550Z,4.65
2023-01-04T13:23:50.574Z,4.61
2023-01-04T13:27:01.876Z,4.58
2023-01-04T13:30:10.326Z,4.55
2023-01-04T13:33:28.367Z,4.51
2023-01-04T13:36:33.747Z,4.50
2023-01-04T13:39:38.795Z,4.46
2023-01-04T13:42:46.044Z,4.44
2023-01-04T13:46:30.402Z,4.39
2023-01-04T13:49:38.143Z,4.33
2023-01-04T13:53:03.641Z,4.29
2023-01-04T13:55:53.173Z,4.22
2023-01-04T13:59:00.868Z,4.18
2023-01-04T14:02:06.198Z,4.15
2023-01-04T14:05:15.220Z,4.14
2023-01-04T14:08:27.194Z,4.13
2023-01-04T14:12:08.144Z,4.12
2023-01-04T14:15:39.421Z,4.13
2023-01-04T14:18:44.952Z,4.12
2023-01-04T14:21:52.575Z,4.13
2023-01-04T14:25:09.093Z,4.13
2023-01-04T14:28:05.432Z,4.11
2023-01-04T14:31:19.747Z,4.09
2023-01-04T14:34:27.600Z,4.08
2023-01-04T14:37:32.896Z,4.08
2023-01-04T14:40:40.020Z,4.08
2023-01-04T14:44:06.624Z,4.06
2023-01-04T14:47:15.480Z,4.07
2023-01-04T14:50:22.073Z,4.06
2023-01-04T14:53:29.174Z,4.03
2023-01-04T14:56:35.795Z,4.02
2023-01-04T14:59:41.203Z,4.01
2023-01-04T15:02:48.938Z,4.00
2023-01-04T15:05:56.070Z,3.97
2023-01-04T15:09:03.332Z,3.95
2023-01-04T15:12:12.323Z,3.93
2023-01-04T15:15:20.097Z,3.90
2023-01-04T15:18:25.659Z,3.84
2023-01-04T15:21:32.930Z,3.73
2023-01-04T15:24:37.749Z,3.66
2023-01-04T15:27:43.431Z,3.59
2023-01-04T15:30:49.752Z,3.54
2023-01-04T15:33:55.357Z,3.45
2023-01-04T15:37:01.941Z,3.36
2023-01-04T15:40:07.069Z,3.24
2023-01-04T15:43:12.734Z,3.14
2023-01-04T15:46:21.429Z,3.03
2023-01-04T15:49:26.741Z,2.95
2023-01-04T15:52:32.040Z,2.86
2023-01-04T15:55:37.895Z,2.77
2023-01-04T15:58:43.767Z,2.69
2023-01-04T16:01:50.363Z,2.62
2023-01-04T16:04:58.498Z,2.55
2023-01-04T16:08:07.298Z,2.48
2023-01-04T16:11:15.902Z,2.44
2023-01-04T16:14:22.248Z,2.40
2023-01-04T16:17:28.248Z,2.36
2023-01-04T16:20:34.157Z,2.31
2023-01-04T16:23:42.802Z,2.28
2023-01-04T16:26:50.014Z,2.24
2023-01-04T16:29:57.153Z,2.19
2023-01-04T16:33:03.679Z,2.15
2023-01-04T16:36:21.297Z,2.12
2023-01-04T16:39:57.204Z,2.09
2023-01-04T16:42:35.279Z,2.05
2023-01-04T16:45:41.670Z,2.01
2023-01-04T16:48:47.598Z,1.96
2023-01-04T16:51:57.429Z,1.92
2023-01-04T16:55:03.616Z,1.88
2023-01-04T16:58:09.817Z,1.84
2023-01-04T17:01:28.904Z,1.79
2023-01-04T17:04:36.406Z,1.74
2023-01-04T17:07:42.680Z,1.67
2023-01-04T17:10:51.881Z,1.62
2023-01-04T17:13:57.893Z,1.57
2023-01-04T17:17:06.363Z,1.54
2023-01-04T17:20:13.514Z,1.50
2023-01-04T17:23:19.589Z,1.48
2023-01-04T17:26:27.368Z,1.46
2023-01-04T17:29:33.486Z,1.42
2023-01-04T17:32:41.103Z,1.37
2023-01-04T17:35:50.529Z,1.35
2023-01-04T17:38:56.898Z,1.34
2023-01-04T17:42:03.318Z,1.30
2023-01-04T17:45:08.372Z,1.27
2023-01-04T17:48:15.229Z,1.25
2023-01-04T17:51:31.450Z,1.23
2023-01-04T17:54:38.247Z,1.22
2023-01-04T17:57:45.733Z,1.20
2023-01-04T18:00:52.378Z,1.21
2023-01-04T18:04:01.439Z,1.20
2023-01-04T18:07:07.955Z,1.19
2023-01-04T18:10:27.218Z,1.15
2023-01-04T18:13:23.020Z,1.12
2023-01-04T18:16:34.922Z,1.08
2023-01-04T18:19:46.469Z,1.03
2023-01-04T18:22:52.079Z,0.98
2023-01-04T18:25:58.871Z,0.97
2023-01-04T18:29:06.259Z,0.95
2023-01-04T18:32:12.920Z,0.92
2023-01-04T18:35:20.869Z,0.91
2023-01-04T18:38:26.804Z,0.90
2023-01-04T18:41:35.869Z,0.87
2023-01-04T18:44:48.851Z,0.85
2023-01-04T18:47:55.528Z,0.83
2023-01-04T18:51:01.310Z,0.82
2023-01-04T18:54:08.786Z,0.77
2023-01-04T18:57:14.639Z,0.75
2023-01-04T19:00:21.444Z,0.73
2023-01-04T19:03:27.096Z,0.70
2023-01-04T19:06:35.099Z,0.69
2023-01-04T19:09:40.979Z,0.66
2023-01-04T19:12:47.814Z,0.58
2023-01-04T19:15:58.234Z,0.50
2023-01-04T19:19:04.071Z,0.42
2023-01-04T19:22:10.245Z,0.35
2023-01-04T19:25:20.777Z,0.28
2023-01-04T19:28:27.885Z,0.20
2023-01-04T19:31:35.057Z,0.11
2023-01-04T19:34:43.719Z,0.07
2023-01-04T19:37:50.355Z,-0.01
2023-01-04T19:40:58.126Z,-0.06
2023-01-04T19:44:04.529Z,-0.08
2023-01-04T19:47:12.065Z,-0.11
2023-01-04T19:50:18.241Z,-0.15
2023-01-04T19:53:25.332Z,-0.16
2023-01-04T19:56:31.652Z,-0.13
2023-01-04T19:59:39.531Z,-0.10
2023-01-04T20:02:46.590Z,-0.13
2023-01-04T20:05:54.436Z,-0.14
2023-01-04T20:09:02.082Z,-0.14
2023-01-04T20:12:10.135Z,-0.15
2023-01-04T20:15:17.791Z,-0.15
2023-01-04T20:18:25.411Z,-0.14
2023-01-04T20:21:32.660Z,-0.10
2023-01-04T20:24:37.593Z,-0.11
2023-01-04T20:27:43.146Z,-0.09
2023-01-04T20:30:53.679Z,-0.07
2023-01-04T20:34:01.058Z,-0.07
2023-01-04T20:37:07.617Z,-0.08
2023-01-04T20:40:15.020Z,-0.09
2023-01-04T20:43:39.063Z,-0.07
2023-01-04T20:46:48.299Z,-0.09
2023-01-04T20:49:52.433Z,-0.13
2023-01-04T20:52:59.313Z,-0.13
2023-01-04T20:56:05.232Z,-0.10
2023-01-04T20:59:13.390Z,-0.06
2023-01-04T21:02:21.277Z,-0.04
2023-01-04T21:05:27.360Z,-0.04
2023-01-04T21:08:34.271Z,-0.03
2023-01-04T21:11:40.388Z,-0.03
2023-01-04T21:14:46.497Z,-0.03
2023-01-04T21:17:54.505Z,-0.05
2023-01-04T21:20:59.769Z,-0.08
2023-01-04T21:24:08.011Z,-0.08
2023-01-04T21:27:14.088Z,-0.09
2023-01-04T21:30:22.706Z,-0.09
2023-01-04T21:33:32.662Z,-0.10
2023-01-04T21:36:42.724Z,-0.08
2023-01-04T21:39:51.148Z,-0.07
2023-01-04T21:42:57.101Z,-0.05
2023-01-04T21:46:02.969Z,-0.03
2023-01-04T21:49:13.516Z,0.00
2023-01-04T21:52:19.985Z,0.03
2023-01-04T21:55:32.445Z,0.07
2023-01-04T21:58:34.975Z,0.10
2023-01-04T22:01:43.113Z,0.13
2023-01-04T22:04:49.521Z,0.16
2023-01-04T22:07:55.670Z,0.19
2023-01-04T22:11:07.781Z,0.21
2023-01-04T22:14:12.939Z,0.24
2023-01-04T22:17:19.125Z,0.25
2023-01-04T22:20:29.059Z,0.27
2023-01-04T22:23:35.382Z,0.27
2023-01-04T22:26:44.132Z,0.24
2023-01-04T22:29:51.366Z,0.26
2023-01-04T22:32:58.200Z,0.35
2023-01-04T22:36:05.311Z,0.41
2023-01-04T22:39:11.972Z,0.46
2023-01-04T22:42:18.817Z,0.54
2023-01-04T22:45:25.216Z,0.60
2023-01-04T22:48:31.477Z,0.64
2023-01-04T22:51:36.389Z,0.69
2023-01-04T22:54:42.613Z,0.74
2023-01-04T22:57:49.833Z,0.75
2023-01-04T23:00:49.645Z,0.80
2023-01-04T23:03:37.834Z,0.83
2023-01-04T23:06:31.427Z,0.86
2023-01-04T23:09:29.422Z,0.85
2023-01-04T23:12:35.935Z,0.82
2023-01-04T23:15:42.181Z,0.84
2023-01-04T23:18:49.571Z,0.87
2023-01-04T23:21:55.523Z,0.90
2023-01-04T23:25:02.040Z,0.91
2023-01-04T23:28:09.586Z,0.92
2023-01-04T23:31:20.687Z,0.93
2023-01-04T23:34:26.844Z,0.95
2023-01-04T23:37:33.067Z,1.00
2023-01-04T23:40:39.664Z,1.09
2023-01-04T23:43:45.891Z,1.19
2023-01-04T23:46:52.273Z,1.27
2023-01-04T23:49:59.167Z,1.33
2023-01-04T23:53:04.328Z,1.41
2023-01-04T23:56:21.182Z,1.49
2023-01-04T23:59:27.811Z,1.53
